<?xml version='1.0' encoding='UTF-8'?>
<gpx version="1.1" creator="https://www.komoot.de" xmlns="http://www.topografix.com/GPX/1/1" xmlns:xsi="http://www.w3.org/2001/XMLSchema-instance" xsi:schemaLocation="http://www.topografix.com/GPX/1/1 http://www.topografix.com/GPX/1/1/gpx.xsd">
  <metadata>
    <name>Fietsroute Winterswijk Tertiair en Kwartair II</name>
    <author>
      <link href="https://www.komoot.de">
        <text>komoot</text>
        <type>text/html</type>
      </link>
    </author>
  </metadata>
  <trk>
    <name>Fietsroute Winterswijk Tertiair en Kwartair II</name>
    <trkseg>
      <trkpt lat="51.972334" lon="6.717934">
        <ele>37.738712</ele>
        <time>2020-10-03T17:46:52.000Z</time>
      </trkpt>
      <trkpt lat="51.972311" lon="6.718100">
        <ele>37.738712</ele>
        <time>2020-10-03T17:46:54.800Z</time>
      </trkpt>
      <trkpt lat="51.972315" lon="6.718433">
        <ele>37.738712</ele>
        <time>2020-10-03T17:47:00.563Z</time>
      </trkpt>
      <trkpt lat="51.972367" lon="6.718530">
        <ele>37.738712</ele>
        <time>2020-10-03T17:47:02.781Z</time>
      </trkpt>
      <trkpt lat="51.972403" lon="6.718595">
        <ele>37.738712</ele>
        <time>2020-10-03T17:47:04.168Z</time>
      </trkpt>
      <trkpt lat="51.972477" lon="6.718627">
        <ele>37.738712</ele>
        <time>2020-10-03T17:47:06.327Z</time>
      </trkpt>
      <trkpt lat="51.972828" lon="6.718684">
        <ele>37.738712</ele>
        <time>2020-10-03T17:47:16.105Z</time>
      </trkpt>
      <trkpt lat="51.972913" lon="6.718699">
        <ele>37.720391</ele>
        <time>2020-10-03T17:47:18.509Z</time>
      </trkpt>
      <trkpt lat="51.973377" lon="6.718771">
        <ele>37.574592</ele>
        <time>2020-10-03T17:47:31.503Z</time>
      </trkpt>
      <trkpt lat="51.973460" lon="6.718829">
        <ele>37.546326</ele>
        <time>2020-10-03T17:47:33.905Z</time>
      </trkpt>
      <trkpt lat="51.974209" lon="6.719986">
        <ele>37.222918</ele>
        <time>2020-10-03T17:48:03.063Z</time>
      </trkpt>
      <trkpt lat="51.974291" lon="6.720051">
        <ele>37.194374</ele>
        <time>2020-10-03T17:48:05.703Z</time>
      </trkpt>
      <trkpt lat="51.974327" lon="6.720083">
        <ele>37.181536</ele>
        <time>2020-10-03T17:48:06.894Z</time>
      </trkpt>
      <trkpt lat="51.974363" lon="6.720111">
        <ele>37.170726</ele>
        <time>2020-10-03T17:48:08.024Z</time>
      </trkpt>
      <trkpt lat="51.974344" lon="6.720199">
        <ele>37.157031</ele>
        <time>2020-10-03T17:48:09.391Z</time>
      </trkpt>
      <trkpt lat="51.974352" lon="6.720386">
        <ele>37.129502</ele>
        <time>2020-10-03T17:48:12.134Z</time>
      </trkpt>
      <trkpt lat="51.974373" lon="6.720460">
        <ele>37.117536</ele>
        <time>2020-10-03T17:48:13.261Z</time>
      </trkpt>
      <trkpt lat="51.974394" lon="6.720626">
        <ele>37.092648</ele>
        <time>2020-10-03T17:48:15.540Z</time>
      </trkpt>
      <trkpt lat="51.974389" lon="6.721085">
        <ele>37.025227</ele>
        <time>2020-10-03T17:48:21.980Z</time>
      </trkpt>
      <trkpt lat="51.974404" lon="6.721270">
        <ele>36.997823</ele>
        <time>2020-10-03T17:48:24.384Z</time>
      </trkpt>
      <trkpt lat="51.974472" lon="6.721643">
        <ele>36.940694</ele>
        <time>2020-10-03T17:48:29.653Z</time>
      </trkpt>
      <trkpt lat="51.974581" lon="6.722226">
        <ele>36.851216</ele>
        <time>2020-10-03T17:48:37.591Z</time>
      </trkpt>
      <trkpt lat="51.974624" lon="6.722434">
        <ele>36.818994</ele>
        <time>2020-10-03T17:48:40.408Z</time>
      </trkpt>
      <trkpt lat="51.974658" lon="6.722584">
        <ele>36.795521</ele>
        <time>2020-10-03T17:48:42.412Z</time>
      </trkpt>
      <trkpt lat="51.974685" lon="6.722731">
        <ele>36.772993</ele>
        <time>2020-10-03T17:48:44.391Z</time>
      </trkpt>
      <trkpt lat="51.974739" lon="6.722720">
        <ele>36.760018</ele>
        <time>2020-10-03T17:48:45.558Z</time>
      </trkpt>
      <trkpt lat="51.974797" lon="6.722696">
        <ele>36.742884</ele>
        <time>2020-10-03T17:48:46.841Z</time>
      </trkpt>
      <trkpt lat="51.974873" lon="6.722667">
        <ele>36.689628</ele>
        <time>2020-10-03T17:48:48.527Z</time>
      </trkpt>
      <trkpt lat="51.974971" lon="6.722519">
        <ele>36.598325</ele>
        <time>2020-10-03T17:48:51.338Z</time>
      </trkpt>
      <trkpt lat="51.975140" lon="6.722321">
        <ele>36.456156</ele>
        <time>2020-10-03T17:48:55.858Z</time>
      </trkpt>
      <trkpt lat="51.975188" lon="6.722351">
        <ele>36.421071</ele>
        <time>2020-10-03T17:48:56.926Z</time>
      </trkpt>
      <trkpt lat="51.975241" lon="6.722411">
        <ele>36.376995</ele>
        <time>2020-10-03T17:48:58.153Z</time>
      </trkpt>
      <trkpt lat="51.975420" lon="6.722790">
        <ele>36.176319</ele>
        <time>2020-10-03T17:49:04.175Z</time>
      </trkpt>
      <trkpt lat="51.975468" lon="6.722851">
        <ele>36.134737</ele>
        <time>2020-10-03T17:49:05.295Z</time>
      </trkpt>
      <trkpt lat="51.975518" lon="6.722901">
        <ele>36.094679</ele>
        <time>2020-10-03T17:49:06.474Z</time>
      </trkpt>
      <trkpt lat="51.975660" lon="6.723000">
        <ele>35.989260</ele>
        <time>2020-10-03T17:49:09.554Z</time>
      </trkpt>
      <trkpt lat="51.975726" lon="6.723034">
        <ele>35.942027</ele>
        <time>2020-10-03T17:49:10.900Z</time>
      </trkpt>
      <trkpt lat="51.975963" lon="6.723119">
        <ele>35.776463</ele>
        <time>2020-10-03T17:49:15.568Z</time>
      </trkpt>
      <trkpt lat="51.976422" lon="6.723236">
        <ele>35.500439</ele>
        <time>2020-10-03T17:49:24.811Z</time>
      </trkpt>
      <trkpt lat="51.976697" lon="6.723304">
        <ele>35.438283</ele>
        <time>2020-10-03T17:49:30.504Z</time>
      </trkpt>
      <trkpt lat="51.977057" lon="6.723382">
        <ele>35.357130</ele>
        <time>2020-10-03T17:49:38.125Z</time>
      </trkpt>
      <trkpt lat="51.977358" lon="6.723360">
        <ele>35.289805</ele>
        <time>2020-10-03T17:49:44.654Z</time>
      </trkpt>
      <trkpt lat="51.977544" lon="6.723306">
        <ele>35.247585</ele>
        <time>2020-10-03T17:49:48.788Z</time>
      </trkpt>
      <trkpt lat="51.977782" lon="6.723233">
        <ele>35.193464</ele>
        <time>2020-10-03T17:49:54.216Z</time>
      </trkpt>
      <trkpt lat="51.978214" lon="6.723105">
        <ele>35.115876</ele>
        <time>2020-10-03T17:50:04.247Z</time>
      </trkpt>
      <trkpt lat="51.978396" lon="6.723051">
        <ele>35.111237</ele>
        <time>2020-10-03T17:50:08.426Z</time>
      </trkpt>
      <trkpt lat="51.978520" lon="6.723015">
        <ele>35.108078</ele>
        <time>2020-10-03T17:50:11.332Z</time>
      </trkpt>
      <trkpt lat="51.978910" lon="6.722919">
        <ele>35.098187</ele>
        <time>2020-10-03T17:50:20.349Z</time>
      </trkpt>
      <trkpt lat="51.979180" lon="6.722918">
        <ele>35.091417</ele>
        <time>2020-10-03T17:50:26.382Z</time>
      </trkpt>
      <trkpt lat="51.979266" lon="6.722943">
        <ele>35.089226</ele>
        <time>2020-10-03T17:50:28.421Z</time>
      </trkpt>
      <trkpt lat="51.979675" lon="6.723149">
        <ele>35.078488</ele>
        <time>2020-10-03T17:50:37.858Z</time>
      </trkpt>
      <trkpt lat="51.980445" lon="6.723626">
        <ele>34.821344</ele>
        <time>2020-10-03T17:50:55.218Z</time>
      </trkpt>
      <trkpt lat="51.980984" lon="6.723949">
        <ele>34.587818</ele>
        <time>2020-10-03T17:51:07.007Z</time>
      </trkpt>
      <trkpt lat="51.981152" lon="6.724096">
        <ele>34.510248</ele>
        <time>2020-10-03T17:51:10.916Z</time>
      </trkpt>
      <trkpt lat="51.981780" lon="6.724403">
        <ele>34.286149</ele>
        <time>2020-10-03T17:51:24.468Z</time>
      </trkpt>
      <trkpt lat="51.981796" lon="6.724312">
        <ele>34.272660</ele>
        <time>2020-10-03T17:51:25.704Z</time>
      </trkpt>
      <trkpt lat="51.981819" lon="6.724186">
        <ele>34.253930</ele>
        <time>2020-10-03T17:51:27.413Z</time>
      </trkpt>
      <trkpt lat="51.981842" lon="6.724197">
        <ele>34.248381</ele>
        <time>2020-10-03T17:51:27.903Z</time>
      </trkpt>
      <trkpt lat="51.981889" lon="6.724151">
        <ele>34.235681</ele>
        <time>2020-10-03T17:51:29.079Z</time>
      </trkpt>
      <trkpt lat="51.981905" lon="6.724086">
        <ele>34.225705</ele>
        <time>2020-10-03T17:51:29.982Z</time>
      </trkpt>
      <trkpt lat="51.982001" lon="6.724121">
        <ele>34.202936</ele>
        <time>2020-10-03T17:51:32.012Z</time>
      </trkpt>
      <trkpt lat="51.982078" lon="6.724141">
        <ele>34.184891</ele>
        <time>2020-10-03T17:51:33.664Z</time>
      </trkpt>
      <trkpt lat="51.982133" lon="6.724330">
        <ele>34.155097</ele>
        <time>2020-10-03T17:51:36.389Z</time>
      </trkpt>
      <trkpt lat="51.982170" lon="6.724375">
        <ele>34.144399</ele>
        <time>2020-10-03T17:51:37.394Z</time>
      </trkpt>
      <trkpt lat="51.982348" lon="6.724452">
        <ele>34.101771</ele>
        <time>2020-10-03T17:51:41.266Z</time>
      </trkpt>
      <trkpt lat="51.983184" lon="6.724838">
        <ele>33.919571</ele>
        <time>2020-10-03T17:52:00.276Z</time>
      </trkpt>
      <trkpt lat="51.983297" lon="6.724858">
        <ele>33.912846</ele>
        <time>2020-10-03T17:52:02.803Z</time>
      </trkpt>
      <trkpt lat="51.983373" lon="6.724888">
        <ele>33.908218</ele>
        <time>2020-10-03T17:52:04.595Z</time>
      </trkpt>
      <trkpt lat="51.983475" lon="6.724937">
        <ele>33.901924</ele>
        <time>2020-10-03T17:52:06.939Z</time>
      </trkpt>
      <trkpt lat="51.984567" lon="6.725476">
        <ele>33.834391</ele>
        <time>2020-10-03T17:52:31.910Z</time>
      </trkpt>
      <trkpt lat="51.984738" lon="6.725474">
        <ele>33.824273</ele>
        <time>2020-10-03T17:52:35.675Z</time>
      </trkpt>
      <trkpt lat="51.984779" lon="6.725483">
        <ele>33.821825</ele>
        <time>2020-10-03T17:52:36.603Z</time>
      </trkpt>
      <trkpt lat="51.984886" lon="6.725535">
        <ele>33.843139</ele>
        <time>2020-10-03T17:52:39.053Z</time>
      </trkpt>
      <trkpt lat="51.985171" lon="6.725663">
        <ele>33.935842</ele>
        <time>2020-10-03T17:52:45.644Z</time>
      </trkpt>
      <trkpt lat="51.985973" lon="6.726015">
        <ele>34.196293</ele>
        <time>2020-10-03T17:53:04.703Z</time>
      </trkpt>
      <trkpt lat="51.986077" lon="6.726075">
        <ele>34.230894</ele>
        <time>2020-10-03T17:53:07.311Z</time>
      </trkpt>
      <trkpt lat="51.986683" lon="6.726389">
        <ele>34.577019</ele>
        <time>2020-10-03T17:53:23.078Z</time>
      </trkpt>
      <trkpt lat="51.987770" lon="6.726893">
        <ele>36.042652</ele>
        <time>2020-10-03T17:53:55.192Z</time>
      </trkpt>
      <trkpt lat="51.988088" lon="6.727007">
        <ele>36.464870</ele>
        <time>2020-10-03T17:54:04.518Z</time>
      </trkpt>
      <trkpt lat="51.988157" lon="6.727032">
        <ele>36.556529</ele>
        <time>2020-10-03T17:54:06.459Z</time>
      </trkpt>
      <trkpt lat="51.988182" lon="6.727042">
        <ele>36.589910</ele>
        <time>2020-10-03T17:54:07.168Z</time>
      </trkpt>
      <trkpt lat="51.988400" lon="6.727200">
        <ele>36.730583</ele>
        <time>2020-10-03T17:54:14.018Z</time>
      </trkpt>
      <trkpt lat="51.989601" lon="6.727744">
        <ele>36.863271</ele>
        <time>2020-10-03T17:54:44.005Z</time>
      </trkpt>
      <trkpt lat="51.989957" lon="6.727698">
        <ele>36.901276</ele>
        <time>2020-10-03T17:54:50.744Z</time>
      </trkpt>
      <trkpt lat="51.990751" lon="6.727225">
        <ele>35.724501</ele>
        <time>2020-10-03T17:55:05.926Z</time>
      </trkpt>
      <trkpt lat="51.991354" lon="6.726859">
        <ele>34.764584</ele>
        <time>2020-10-03T17:55:17.488Z</time>
      </trkpt>
      <trkpt lat="51.992020" lon="6.726467">
        <ele>34.078350</ele>
        <time>2020-10-03T17:55:30.596Z</time>
      </trkpt>
      <trkpt lat="51.994017" lon="6.725293">
        <ele>33.300804</ele>
        <time>2020-10-03T17:56:16.964Z</time>
      </trkpt>
      <trkpt lat="51.994050" lon="6.725445">
        <ele>33.276651</ele>
        <time>2020-10-03T17:56:19.197Z</time>
      </trkpt>
      <trkpt lat="51.994036" lon="6.725453">
        <ele>33.273039</ele>
        <time>2020-10-03T17:56:19.598Z</time>
      </trkpt>
      <trkpt lat="51.994050" lon="6.725445">
        <ele>33.269427</ele>
        <time>2020-10-03T17:56:19.865Z</time>
      </trkpt>
      <trkpt lat="51.994090" lon="6.725421">
        <ele>33.259048</ele>
        <time>2020-10-03T17:56:20.850Z</time>
      </trkpt>
      <trkpt lat="51.994462" lon="6.729951">
        <ele>32.352095</ele>
        <time>2020-10-03T17:57:22.472Z</time>
      </trkpt>
      <trkpt lat="51.995815" lon="6.730780">
        <ele>32.177043</ele>
        <time>2020-10-03T17:57:53.679Z</time>
      </trkpt>
      <trkpt lat="51.997424" lon="6.731299">
        <ele>32.446051</ele>
        <time>2020-10-03T17:58:32.022Z</time>
      </trkpt>
      <trkpt lat="51.997788" lon="6.731326">
        <ele>32.528360</ele>
        <time>2020-10-03T17:58:40.489Z</time>
      </trkpt>
      <trkpt lat="51.997960" lon="6.731360">
        <ele>32.540760</ele>
        <time>2020-10-03T17:58:44.418Z</time>
      </trkpt>
      <trkpt lat="51.998170" lon="6.731550">
        <ele>32.520971</ele>
        <time>2020-10-03T17:58:49.835Z</time>
      </trkpt>
      <trkpt lat="51.998280" lon="6.731810">
        <ele>32.504981</ele>
        <time>2020-10-03T17:58:54.179Z</time>
      </trkpt>
      <trkpt lat="51.998389" lon="6.732409">
        <ele>32.473323</ele>
        <time>2020-10-03T17:59:02.672Z</time>
      </trkpt>
      <trkpt lat="51.998576" lon="6.733675">
        <ele>32.407336</ele>
        <time>2020-10-03T17:59:19.766Z</time>
      </trkpt>
      <trkpt lat="51.998680" lon="6.733949">
        <ele>32.399228</ele>
        <time>2020-10-03T17:59:24.029Z</time>
      </trkpt>
      <trkpt lat="51.999030" lon="6.734300">
        <ele>32.396905</ele>
        <time>2020-10-03T17:59:32.876Z</time>
      </trkpt>
      <trkpt lat="51.999170" lon="6.734730">
        <ele>32.395213</ele>
        <time>2020-10-03T17:59:39.398Z</time>
      </trkpt>
      <trkpt lat="51.999175" lon="6.734925">
        <ele>32.394534</ele>
        <time>2020-10-03T17:59:42.035Z</time>
      </trkpt>
      <trkpt lat="51.999180" lon="6.735110">
        <ele>32.393890</ele>
        <time>2020-10-03T17:59:44.559Z</time>
      </trkpt>
      <trkpt lat="52.001100" lon="6.735930">
        <ele>32.566844</ele>
        <time>2020-10-03T18:00:30.591Z</time>
      </trkpt>
      <trkpt lat="52.003552" lon="6.737481">
        <ele>32.555940</ele>
        <time>2020-10-03T18:01:28.303Z</time>
      </trkpt>
      <trkpt lat="52.004378" lon="6.738392">
        <ele>32.654473</ele>
        <time>2020-10-03T18:01:50.859Z</time>
      </trkpt>
      <trkpt lat="52.004576" lon="6.738519">
        <ele>32.675482</ele>
        <time>2020-10-03T18:01:55.780Z</time>
      </trkpt>
      <trkpt lat="52.004938" lon="6.738497">
        <ele>32.723942</ele>
        <time>2020-10-03T18:02:04.259Z</time>
      </trkpt>
      <trkpt lat="52.006718" lon="6.737594">
        <ele>33.383338</ele>
        <time>2020-10-03T18:02:48.826Z</time>
      </trkpt>
      <trkpt lat="52.006737" lon="6.737866">
        <ele>33.411555</ele>
        <time>2020-10-03T18:02:52.974Z</time>
      </trkpt>
      <trkpt lat="52.006755" lon="6.738137">
        <ele>33.439651</ele>
        <time>2020-10-03T18:02:57.113Z</time>
      </trkpt>
      <trkpt lat="52.006850" lon="6.741450">
        <ele>33.533291</ele>
        <time>2020-10-03T18:03:45.201Z</time>
      </trkpt>
      <trkpt lat="52.006910" lon="6.741790">
        <ele>33.491759</ele>
        <time>2020-10-03T18:03:50.055Z</time>
      </trkpt>
      <trkpt lat="52.007360" lon="6.743550">
        <ele>33.222208</ele>
        <time>2020-10-03T18:04:15.660Z</time>
      </trkpt>
      <trkpt lat="52.007970" lon="6.745660">
        <ele>32.718179</ele>
        <time>2020-10-03T18:04:46.780Z</time>
      </trkpt>
      <trkpt lat="52.008160" lon="6.746120">
        <ele>32.834502</ele>
        <time>2020-10-03T18:04:54.466Z</time>
      </trkpt>
      <trkpt lat="52.008840" lon="6.747280">
        <ele>33.375118</ele>
        <time>2020-10-03T18:05:19.501Z</time>
      </trkpt>
      <trkpt lat="52.009185" lon="6.748135">
        <ele>33.760654</ele>
        <time>2020-10-03T18:05:36.686Z</time>
      </trkpt>
      <trkpt lat="52.009242" lon="6.748277">
        <ele>33.871288</ele>
        <time>2020-10-03T18:05:40.105Z</time>
      </trkpt>
      <trkpt lat="52.009666" lon="6.749638">
        <ele>34.866759</ele>
        <time>2020-10-03T18:06:06.213Z</time>
      </trkpt>
      <trkpt lat="52.009739" lon="6.749874">
        <ele>35.039126</ele>
        <time>2020-10-03T18:06:11.232Z</time>
      </trkpt>
      <trkpt lat="52.009320" lon="6.750396">
        <ele>35.588754</ele>
        <time>2020-10-03T18:06:25.119Z</time>
      </trkpt>
      <trkpt lat="52.008837" lon="6.751118">
        <ele>35.818929</ele>
        <time>2020-10-03T18:06:41.405Z</time>
      </trkpt>
      <trkpt lat="52.007931" lon="6.752541">
        <ele>36.281041</ele>
        <time>2020-10-03T18:07:11.388Z</time>
      </trkpt>
      <trkpt lat="52.007946" lon="6.752584">
        <ele>36.296351</ele>
        <time>2020-10-03T18:07:12.190Z</time>
      </trkpt>
      <trkpt lat="52.008100" lon="6.753020">
        <ele>36.452071</ele>
        <time>2020-10-03T18:07:19.782Z</time>
      </trkpt>
      <trkpt lat="52.008190" lon="6.753170">
        <ele>36.516960</ele>
        <time>2020-10-03T18:07:23.043Z</time>
      </trkpt>
      <trkpt lat="52.008430" lon="6.753400">
        <ele>36.657190</ele>
        <time>2020-10-03T18:07:30.168Z</time>
      </trkpt>
      <trkpt lat="52.010080" lon="6.755020">
        <ele>37.490823</ele>
        <time>2020-10-03T18:08:20.069Z</time>
      </trkpt>
      <trkpt lat="52.011050" lon="6.756380">
        <ele>37.714455</ele>
        <time>2020-10-03T18:08:49.727Z</time>
      </trkpt>
      <trkpt lat="52.011200" lon="6.756740">
        <ele>37.678054</ele>
        <time>2020-10-03T18:08:55.666Z</time>
      </trkpt>
      <trkpt lat="52.011820" lon="6.757840">
        <ele>37.553167</ele>
        <time>2020-10-03T18:09:16.293Z</time>
      </trkpt>
      <trkpt lat="52.012965" lon="6.759235">
        <ele>37.620725</ele>
        <time>2020-10-03T18:09:49.505Z</time>
      </trkpt>
      <trkpt lat="52.013516" lon="6.759765">
        <ele>37.702713</ele>
        <time>2020-10-03T18:10:05.126Z</time>
      </trkpt>
      <trkpt lat="52.013556" lon="6.759783">
        <ele>37.716586</ele>
        <time>2020-10-03T18:10:05.945Z</time>
      </trkpt>
      <trkpt lat="52.013648" lon="6.759827">
        <ele>37.748639</ele>
        <time>2020-10-03T18:10:08.353Z</time>
      </trkpt>
      <trkpt lat="52.014223" lon="6.760210">
        <ele>37.956341</ele>
        <time>2020-10-03T18:10:23.352Z</time>
      </trkpt>
      <trkpt lat="52.014455" lon="6.760468">
        <ele>38.050304</ele>
        <time>2020-10-03T18:10:30.405Z</time>
      </trkpt>
      <trkpt lat="52.014587" lon="6.761320">
        <ele>38.231031</ele>
        <time>2020-10-03T18:10:43.537Z</time>
      </trkpt>
      <trkpt lat="52.014478" lon="6.761816">
        <ele>38.251070</ele>
        <time>2020-10-03T18:10:51.793Z</time>
      </trkpt>
      <trkpt lat="52.014473" lon="6.762090">
        <ele>38.249632</ele>
        <time>2020-10-03T18:10:56.236Z</time>
      </trkpt>
      <trkpt lat="52.014593" lon="6.762561">
        <ele>38.246957</ele>
        <time>2020-10-03T18:11:03.978Z</time>
      </trkpt>
      <trkpt lat="52.014720" lon="6.762818">
        <ele>38.245228</ele>
        <time>2020-10-03T18:11:08.588Z</time>
      </trkpt>
      <trkpt lat="52.015256" lon="6.763531">
        <ele>38.239323</ele>
        <time>2020-10-03T18:11:24.178Z</time>
      </trkpt>
      <trkpt lat="52.015357" lon="6.763341">
        <ele>38.238006</ele>
        <time>2020-10-03T18:11:28.477Z</time>
      </trkpt>
      <trkpt lat="52.015358" lon="6.763339">
        <ele>38.237992</ele>
        <time>2020-10-03T18:11:28.637Z</time>
      </trkpt>
      <trkpt lat="52.015590" lon="6.762902">
        <ele>37.955530</ele>
        <time>2020-10-03T18:11:38.107Z</time>
      </trkpt>
      <trkpt lat="52.016505" lon="6.761162">
        <ele>36.813419</ele>
        <time>2020-10-03T18:12:15.092Z</time>
      </trkpt>
      <trkpt lat="52.016626" lon="6.760909">
        <ele>36.766975</ele>
        <time>2020-10-03T18:12:19.057Z</time>
      </trkpt>
      <trkpt lat="52.017382" lon="6.758729">
        <ele>36.642762</ele>
        <time>2020-10-03T18:12:53.410Z</time>
      </trkpt>
      <trkpt lat="52.018511" lon="6.755464">
        <ele>39.524745</ele>
        <time>2020-10-03T18:14:00.277Z</time>
      </trkpt>
      <trkpt lat="52.018808" lon="6.754596">
        <ele>40.382119</ele>
        <time>2020-10-03T18:14:19.444Z</time>
      </trkpt>
      <trkpt lat="52.020111" lon="6.750764">
        <ele>43.354506</ele>
        <time>2020-10-03T18:15:32.834Z</time>
      </trkpt>
      <trkpt lat="52.020840" lon="6.748620">
        <ele>44.730714</ele>
        <time>2020-10-03T18:16:12.342Z</time>
      </trkpt>
      <trkpt lat="52.021790" lon="6.745950">
        <ele>46.700911</ele>
        <time>2020-10-03T18:17:06.331Z</time>
      </trkpt>
      <trkpt lat="52.022380" lon="6.744170">
        <ele>46.074279</ele>
        <time>2020-10-03T18:17:35.593Z</time>
      </trkpt>
      <trkpt lat="52.023920" lon="6.739530">
        <ele>41.549211</ele>
        <time>2020-10-03T18:18:34.823Z</time>
      </trkpt>
      <trkpt lat="52.027290" lon="6.729770">
        <ele>39.625589</ele>
        <time>2020-10-03T18:21:13.360Z</time>
      </trkpt>
      <trkpt lat="52.027261" lon="6.729717">
        <ele>39.616795</ele>
        <time>2020-10-03T18:21:14.330Z</time>
      </trkpt>
      <trkpt lat="52.027190" lon="6.729590">
        <ele>39.595520</ele>
        <time>2020-10-03T18:21:16.717Z</time>
      </trkpt>
      <trkpt lat="52.025540" lon="6.727610">
        <ele>39.108375</ele>
        <time>2020-10-03T18:22:02.234Z</time>
      </trkpt>
      <trkpt lat="52.022320" lon="6.723710">
        <ele>37.964245</ele>
        <time>2020-10-03T18:23:31.487Z</time>
      </trkpt>
      <trkpt lat="52.021650" lon="6.722890">
        <ele>37.676612</ele>
        <time>2020-10-03T18:23:49.678Z</time>
      </trkpt>
      <trkpt lat="52.019110" lon="6.719900">
        <ele>36.488079</ele>
        <time>2020-10-03T18:24:57.805Z</time>
      </trkpt>
      <trkpt lat="52.013960" lon="6.713700">
        <ele>36.132046</ele>
        <time>2020-10-03T18:27:24.635Z</time>
      </trkpt>
      <trkpt lat="52.014047" lon="6.713715">
        <ele>36.147415</ele>
        <time>2020-10-03T18:27:28.573Z</time>
      </trkpt>
      <trkpt lat="52.019242" lon="6.714644">
        <ele>37.674369</ele>
        <time>2020-10-03T18:30:50.031Z</time>
      </trkpt>
      <trkpt lat="52.019268" lon="6.714596">
        <ele>37.677909</ele>
        <time>2020-10-03T18:30:51.018Z</time>
      </trkpt>
      <trkpt lat="52.019333" lon="6.714479">
        <ele>37.686634</ele>
        <time>2020-10-03T18:30:53.310Z</time>
      </trkpt>
      <trkpt lat="52.019754" lon="6.713623">
        <ele>37.747292</ele>
        <time>2020-10-03T18:31:08.716Z</time>
      </trkpt>
      <trkpt lat="52.020081" lon="6.712730">
        <ele>37.367320</ele>
        <time>2020-10-03T18:31:22.567Z</time>
      </trkpt>
      <trkpt lat="52.020545" lon="6.712067">
        <ele>36.864566</ele>
        <time>2020-10-03T18:31:35.330Z</time>
      </trkpt>
      <trkpt lat="52.020692" lon="6.711772">
        <ele>36.674495</ele>
        <time>2020-10-03T18:31:39.996Z</time>
      </trkpt>
      <trkpt lat="52.020815" lon="6.711465">
        <ele>36.491062</ele>
        <time>2020-10-03T18:31:44.515Z</time>
      </trkpt>
      <trkpt lat="52.021100" lon="6.711300">
        <ele>36.217497</ele>
        <time>2020-10-03T18:31:50.570Z</time>
      </trkpt>
      <trkpt lat="52.021286" lon="6.711332">
        <ele>35.986430</ele>
        <time>2020-10-03T18:31:54.200Z</time>
      </trkpt>
      <trkpt lat="52.021404" lon="6.711164">
        <ele>35.792620</ele>
        <time>2020-10-03T18:31:57.339Z</time>
      </trkpt>
      <trkpt lat="52.021674" lon="6.709351">
        <ele>34.374556</ele>
        <time>2020-10-03T18:32:19.721Z</time>
      </trkpt>
      <trkpt lat="52.021280" lon="6.707450">
        <ele>33.321803</ele>
        <time>2020-10-03T18:32:44.605Z</time>
      </trkpt>
      <trkpt lat="52.021120" lon="6.706520">
        <ele>32.870410</ele>
        <time>2020-10-03T18:32:57.240Z</time>
      </trkpt>
      <trkpt lat="52.021234" lon="6.706541">
        <ele>32.783260</ele>
        <time>2020-10-03T18:32:59.838Z</time>
      </trkpt>
      <trkpt lat="52.022600" lon="6.706790">
        <ele>32.910674</ele>
        <time>2020-10-03T18:33:32.189Z</time>
      </trkpt>
      <trkpt lat="52.026370" lon="6.707490">
        <ele>34.301496</ele>
        <time>2020-10-03T18:35:08.112Z</time>
      </trkpt>
      <trkpt lat="52.032721" lon="6.708690">
        <ele>30.853554</ele>
        <time>2020-10-03T18:38:50.881Z</time>
      </trkpt>
      <trkpt lat="52.034508" lon="6.707625">
        <ele>30.552199</ele>
        <time>2020-10-03T18:40:00.996Z</time>
      </trkpt>
      <trkpt lat="52.035238" lon="6.707201">
        <ele>30.562715</ele>
        <time>2020-10-03T18:40:30.084Z</time>
      </trkpt>
      <trkpt lat="52.035318" lon="6.707154">
        <ele>30.563869</ele>
        <time>2020-10-03T18:40:33.370Z</time>
      </trkpt>
      <trkpt lat="52.035030" lon="6.704470">
        <ele>30.515692</ele>
        <time>2020-10-03T18:41:11.979Z</time>
      </trkpt>
      <trkpt lat="52.034664" lon="6.701466">
        <ele>30.550165</ele>
        <time>2020-10-03T18:41:55.657Z</time>
      </trkpt>
      <trkpt lat="52.034432" lon="6.699547">
        <ele>30.633195</ele>
        <time>2020-10-03T18:42:24.518Z</time>
      </trkpt>
      <trkpt lat="52.034386" lon="6.699216">
        <ele>30.649306</ele>
        <time>2020-10-03T18:42:29.544Z</time>
      </trkpt>
      <trkpt lat="52.034258" lon="6.698956">
        <ele>30.665116</ele>
        <time>2020-10-03T18:42:34.425Z</time>
      </trkpt>
      <trkpt lat="52.034220" lon="6.698880">
        <ele>30.669765</ele>
        <time>2020-10-03T18:42:35.819Z</time>
      </trkpt>
      <trkpt lat="52.031530" lon="6.694120">
        <ele>29.958925</ele>
        <time>2020-10-03T18:44:04.841Z</time>
      </trkpt>
      <trkpt lat="52.030997" lon="6.693207">
        <ele>29.970517</ele>
        <time>2020-10-03T18:44:22.742Z</time>
      </trkpt>
      <trkpt lat="52.030154" lon="6.691697">
        <ele>30.096440</ele>
        <time>2020-10-03T18:44:52.220Z</time>
      </trkpt>
      <trkpt lat="52.030155" lon="6.691360">
        <ele>30.176046</ele>
        <time>2020-10-03T18:44:57.182Z</time>
      </trkpt>
      <trkpt lat="52.030158" lon="6.690020">
        <ele>30.492577</ele>
        <time>2020-10-03T18:45:17.481Z</time>
      </trkpt>
      <trkpt lat="52.030110" lon="6.689692">
        <ele>30.572218</ele>
        <time>2020-10-03T18:45:22.721Z</time>
      </trkpt>
      <trkpt lat="52.028274" lon="6.683709">
        <ele>33.543458</ele>
        <time>2020-10-03T18:47:12.122Z</time>
      </trkpt>
      <trkpt lat="52.028274" lon="6.683709">
        <ele>33.543458</ele>
        <time>2020-10-03T18:47:12.131Z</time>
      </trkpt>
      <trkpt lat="52.023234" lon="6.681862">
        <ele>33.347802</ele>
        <time>2020-10-03T18:49:10.304Z</time>
      </trkpt>
      <trkpt lat="52.022870" lon="6.681720">
        <ele>33.224367</ele>
        <time>2020-10-03T18:49:18.635Z</time>
      </trkpt>
      <trkpt lat="52.022060" lon="6.681420">
        <ele>32.950428</ele>
        <time>2020-10-03T18:49:36.950Z</time>
      </trkpt>
      <trkpt lat="52.020400" lon="6.680871">
        <ele>32.383308</ele>
        <time>2020-10-03T18:50:13.635Z</time>
      </trkpt>
      <trkpt lat="52.020343" lon="6.680896">
        <ele>32.363390</ele>
        <time>2020-10-03T18:50:14.971Z</time>
      </trkpt>
      <trkpt lat="52.020290" lon="6.680946">
        <ele>32.342714</ele>
        <time>2020-10-03T18:50:16.274Z</time>
      </trkpt>
      <trkpt lat="52.019250" lon="6.683170">
        <ele>32.313257</ele>
        <time>2020-10-03T18:50:55.231Z</time>
      </trkpt>
      <trkpt lat="52.019211" lon="6.683252">
        <ele>32.322032</ele>
        <time>2020-10-03T18:50:56.680Z</time>
      </trkpt>
      <trkpt lat="52.018405" lon="6.682269">
        <ele>32.820888</ele>
        <time>2020-10-03T18:51:21.731Z</time>
      </trkpt>
      <trkpt lat="52.017179" lon="6.680761">
        <ele>34.081587</ele>
        <time>2020-10-03T18:52:03.650Z</time>
      </trkpt>
      <trkpt lat="52.016687" lon="6.680164">
        <ele>33.839477</ele>
        <time>2020-10-03T18:52:18.123Z</time>
      </trkpt>
      <trkpt lat="52.015270" lon="6.678430">
        <ele>32.285520</ele>
        <time>2020-10-03T18:52:51.544Z</time>
      </trkpt>
      <trkpt lat="52.014900" lon="6.677880">
        <ele>31.524061</ele>
        <time>2020-10-03T18:53:00.448Z</time>
      </trkpt>
      <trkpt lat="52.014480" lon="6.677010">
        <ele>30.513093</ele>
        <time>2020-10-03T18:53:12.736Z</time>
      </trkpt>
      <trkpt lat="52.014173" lon="6.676252">
        <ele>29.752052</ele>
        <time>2020-10-03T18:53:23.032Z</time>
      </trkpt>
      <trkpt lat="52.013330" lon="6.674370">
        <ele>28.010169</ele>
        <time>2020-10-03T18:53:50.065Z</time>
      </trkpt>
      <trkpt lat="52.013040" lon="6.673780">
        <ele>27.667860</ele>
        <time>2020-10-03T18:53:59.048Z</time>
      </trkpt>
      <trkpt lat="52.012570" lon="6.672760">
        <ele>27.090200</ele>
        <time>2020-10-03T18:54:14.970Z</time>
      </trkpt>
      <trkpt lat="52.012240" lon="6.672370">
        <ele>26.918547</ele>
        <time>2020-10-03T18:54:23.709Z</time>
      </trkpt>
      <trkpt lat="52.011900" lon="6.672240">
        <ele>26.892987</ele>
        <time>2020-10-03T18:54:31.436Z</time>
      </trkpt>
      <trkpt lat="52.010360" lon="6.672180">
        <ele>26.820875</ele>
        <time>2020-10-03T18:55:05.952Z</time>
      </trkpt>
      <trkpt lat="52.010270" lon="6.672110">
        <ele>26.827772</ele>
        <time>2020-10-03T18:55:08.162Z</time>
      </trkpt>
      <trkpt lat="52.010130" lon="6.671730">
        <ele>26.846614</ele>
        <time>2020-10-03T18:55:14.207Z</time>
      </trkpt>
      <trkpt lat="52.009910" lon="6.669460">
        <ele>27.057704</ele>
        <time>2020-10-03T18:55:46.251Z</time>
      </trkpt>
      <trkpt lat="52.009720" lon="6.668890">
        <ele>27.250537</ele>
        <time>2020-10-03T18:55:55.692Z</time>
      </trkpt>
      <trkpt lat="52.009500" lon="6.668610">
        <ele>27.385604</ele>
        <time>2020-10-03T18:56:02.455Z</time>
      </trkpt>
      <trkpt lat="52.008145" lon="6.668089">
        <ele>28.034968</ele>
        <time>2020-10-03T18:56:37.339Z</time>
      </trkpt>
      <trkpt lat="52.007856" lon="6.667988">
        <ele>28.165058</ele>
        <time>2020-10-03T18:56:44.473Z</time>
      </trkpt>
      <trkpt lat="52.007798" lon="6.667966">
        <ele>28.191269</ele>
        <time>2020-10-03T18:56:45.875Z</time>
      </trkpt>
      <trkpt lat="52.007762" lon="6.667953">
        <ele>28.207498</ele>
        <time>2020-10-03T18:56:46.740Z</time>
      </trkpt>
      <trkpt lat="52.007607" lon="6.667895">
        <ele>28.277495</ele>
        <time>2020-10-03T18:56:50.518Z</time>
      </trkpt>
      <trkpt lat="52.007463" lon="6.667899">
        <ele>28.340875</ele>
        <time>2020-10-03T18:56:53.887Z</time>
      </trkpt>
      <trkpt lat="52.007058" lon="6.668131">
        <ele>28.529859</ele>
        <time>2020-10-03T18:57:03.915Z</time>
      </trkpt>
      <trkpt lat="52.006870" lon="6.668126">
        <ele>28.592706</ele>
        <time>2020-10-03T18:57:08.291Z</time>
      </trkpt>
      <trkpt lat="52.006351" lon="6.668002">
        <ele>28.649067</ele>
        <time>2020-10-03T18:57:20.278Z</time>
      </trkpt>
      <trkpt lat="52.006308" lon="6.667990">
        <ele>28.653754</ele>
        <time>2020-10-03T18:57:21.200Z</time>
      </trkpt>
      <trkpt lat="52.004680" lon="6.667480">
        <ele>28.886719</ele>
        <time>2020-10-03T18:57:58.617Z</time>
      </trkpt>
      <trkpt lat="52.003880" lon="6.667570">
        <ele>29.063091</ele>
        <time>2020-10-03T18:58:17.376Z</time>
      </trkpt>
      <trkpt lat="52.002700" lon="6.667660">
        <ele>29.369996</ele>
        <time>2020-10-03T18:58:44.929Z</time>
      </trkpt>
      <trkpt lat="52.001846" lon="6.666403">
        <ele>29.702945</ele>
        <time>2020-10-03T18:59:11.954Z</time>
      </trkpt>
      <trkpt lat="52.001702" lon="6.666205">
        <ele>29.748257</ele>
        <time>2020-10-03T18:59:16.269Z</time>
      </trkpt>
      <trkpt lat="52.001643" lon="6.666135">
        <ele>29.765805</ele>
        <time>2020-10-03T18:59:18.142Z</time>
      </trkpt>
      <trkpt lat="51.999426" lon="6.663470">
        <ele>30.303226</ele>
        <time>2020-10-03T19:00:21.813Z</time>
      </trkpt>
      <trkpt lat="51.999392" lon="6.663429">
        <ele>30.309152</ele>
        <time>2020-10-03T19:00:23.038Z</time>
      </trkpt>
      <trkpt lat="51.999426" lon="6.663470">
        <ele>30.315077</ele>
        <time>2020-10-03T19:00:23.825Z</time>
      </trkpt>
      <trkpt lat="51.996367" lon="6.668217">
        <ele>30.230950</ele>
        <time>2020-10-03T19:01:57.829Z</time>
      </trkpt>
      <trkpt lat="51.994209" lon="6.671656">
        <ele>29.684380</ele>
        <time>2020-10-03T19:03:02.377Z</time>
      </trkpt>
      <trkpt lat="51.992081" lon="6.674966">
        <ele>30.488926</ele>
        <time>2020-10-03T19:04:10.809Z</time>
      </trkpt>
      <trkpt lat="51.991947" lon="6.675174">
        <ele>30.604756</ele>
        <time>2020-10-03T19:04:15.370Z</time>
      </trkpt>
      <trkpt lat="51.990075" lon="6.678026">
        <ele>32.799006</ele>
        <time>2020-10-03T19:05:22.540Z</time>
      </trkpt>
      <trkpt lat="51.990030" lon="6.677958">
        <ele>32.858835</ele>
        <time>2020-10-03T19:05:24.448Z</time>
      </trkpt>
      <trkpt lat="51.989995" lon="6.678011">
        <ele>32.904920</ele>
        <time>2020-10-03T19:05:25.694Z</time>
      </trkpt>
      <trkpt lat="51.989887" lon="6.678167">
        <ele>33.030632</ele>
        <time>2020-10-03T19:05:31.393Z</time>
      </trkpt>
      <trkpt lat="51.989759" lon="6.678351">
        <ele>33.179309</ele>
        <time>2020-10-03T19:05:38.720Z</time>
      </trkpt>
      <trkpt lat="51.989565" lon="6.678516">
        <ele>33.369777</ele>
        <time>2020-10-03T19:05:47.238Z</time>
      </trkpt>
      <trkpt lat="51.989528" lon="6.678513">
        <ele>33.401997</ele>
        <time>2020-10-03T19:05:48.866Z</time>
      </trkpt>
      <trkpt lat="51.989481" lon="6.678508">
        <ele>33.442961</ele>
        <time>2020-10-03T19:05:50.910Z</time>
      </trkpt>
      <trkpt lat="51.989136" lon="6.678476">
        <ele>33.743506</ele>
        <time>2020-10-03T19:06:04.786Z</time>
      </trkpt>
      <trkpt lat="51.989060" lon="6.678461">
        <ele>33.810091</ele>
        <time>2020-10-03T19:06:08.077Z</time>
      </trkpt>
      <trkpt lat="51.988129" lon="6.678280">
        <ele>34.577226</ele>
        <time>2020-10-03T19:06:45.707Z</time>
      </trkpt>
      <trkpt lat="51.987500" lon="6.678157">
        <ele>34.962195</ele>
        <time>2020-10-03T19:07:11.353Z</time>
      </trkpt>
      <trkpt lat="51.986191" lon="6.678115">
        <ele>35.291636</ele>
        <time>2020-10-03T19:08:02.555Z</time>
      </trkpt>
      <trkpt lat="51.986192" lon="6.678056">
        <ele>35.262175</ele>
        <time>2020-10-03T19:08:03.489Z</time>
      </trkpt>
      <trkpt lat="51.986204" lon="6.677334">
        <ele>34.901666</ele>
        <time>2020-10-03T19:08:13.344Z</time>
      </trkpt>
      <trkpt lat="51.986204" lon="6.677250">
        <ele>34.859739</ele>
        <time>2020-10-03T19:08:14.433Z</time>
      </trkpt>
      <trkpt lat="51.986207" lon="6.676607">
        <ele>34.538784</ele>
        <time>2020-10-03T19:08:22.368Z</time>
      </trkpt>
      <trkpt lat="51.986207" lon="6.676558">
        <ele>34.514326</ele>
        <time>2020-10-03T19:08:22.893Z</time>
      </trkpt>
      <trkpt lat="51.986215" lon="6.675778">
        <ele>34.124944</ele>
        <time>2020-10-03T19:08:31.934Z</time>
      </trkpt>
      <trkpt lat="51.986240" lon="6.673631">
        <ele>31.682367</ele>
        <time>2020-10-03T19:08:55.976Z</time>
      </trkpt>
      <trkpt lat="51.986268" lon="6.671209">
        <ele>30.037591</ele>
        <time>2020-10-03T19:09:25.653Z</time>
      </trkpt>
      <trkpt lat="51.986137" lon="6.671116">
        <ele>29.936494</ele>
        <time>2020-10-03T19:09:28.939Z</time>
      </trkpt>
      <trkpt lat="51.986111" lon="6.671106">
        <ele>29.917601</ele>
        <time>2020-10-03T19:09:29.540Z</time>
      </trkpt>
      <trkpt lat="51.986091" lon="6.671098">
        <ele>29.903036</ele>
        <time>2020-10-03T19:09:29.982Z</time>
      </trkpt>
      <trkpt lat="51.986052" lon="6.671083">
        <ele>29.874696</ele>
        <time>2020-10-03T19:09:30.820Z</time>
      </trkpt>
      <trkpt lat="51.985971" lon="6.671048">
        <ele>29.815427</ele>
        <time>2020-10-03T19:09:32.687Z</time>
      </trkpt>
      <trkpt lat="51.985808" lon="6.670978">
        <ele>29.696207</ele>
        <time>2020-10-03T19:09:36.589Z</time>
      </trkpt>
      <trkpt lat="51.984824" lon="6.670549">
        <ele>29.501375</ele>
        <time>2020-10-03T19:09:59.936Z</time>
      </trkpt>
      <trkpt lat="51.984704" lon="6.670573">
        <ele>29.508220</ele>
        <time>2020-10-03T19:10:02.851Z</time>
      </trkpt>
      <trkpt lat="51.984655" lon="6.670624">
        <ele>29.511515</ele>
        <time>2020-10-03T19:10:04.133Z</time>
      </trkpt>
      <trkpt lat="51.984624" lon="6.670685">
        <ele>29.514272</ele>
        <time>2020-10-03T19:10:05.259Z</time>
      </trkpt>
      <trkpt lat="51.984084" lon="6.672411">
        <ele>29.764374</ele>
        <time>2020-10-03T19:10:33.573Z</time>
      </trkpt>
      <trkpt lat="51.983823" lon="6.672724">
        <ele>29.974063</ele>
        <time>2020-10-03T19:10:41.630Z</time>
      </trkpt>
      <trkpt lat="51.983376" lon="6.672848">
        <ele>30.267122</ele>
        <time>2020-10-03T19:10:53.015Z</time>
      </trkpt>
      <trkpt lat="51.982653" lon="6.672918">
        <ele>30.753767</ele>
        <time>2020-10-03T19:11:12.183Z</time>
      </trkpt>
      <trkpt lat="51.982580" lon="6.672932">
        <ele>30.904085</ele>
        <time>2020-10-03T19:11:14.444Z</time>
      </trkpt>
      <trkpt lat="51.982533" lon="6.672954">
        <ele>31.004112</ele>
        <time>2020-10-03T19:11:15.893Z</time>
      </trkpt>
      <trkpt lat="51.982476" lon="6.672981">
        <ele>31.125533</ele>
        <time>2020-10-03T19:11:17.708Z</time>
      </trkpt>
      <trkpt lat="51.982385" lon="6.673030">
        <ele>31.321589</ele>
        <time>2020-10-03T19:11:20.490Z</time>
      </trkpt>
      <trkpt lat="51.982199" lon="6.673191">
        <ele>31.752625</ele>
        <time>2020-10-03T19:11:27.146Z</time>
      </trkpt>
      <trkpt lat="51.981735" lon="6.673635">
        <ele>32.854009</ele>
        <time>2020-10-03T19:11:44.253Z</time>
      </trkpt>
      <trkpt lat="51.981049" lon="6.674315">
        <ele>34.448605</ele>
        <time>2020-10-03T19:12:10.934Z</time>
      </trkpt>
      <trkpt lat="51.980644" lon="6.674639">
        <ele>34.884697</ele>
        <time>2020-10-03T19:12:25.742Z</time>
      </trkpt>
      <trkpt lat="51.980322" lon="6.674657">
        <ele>35.195894</ele>
        <time>2020-10-03T19:12:34.251Z</time>
      </trkpt>
      <trkpt lat="51.980282" lon="6.674627">
        <ele>35.238453</ele>
        <time>2020-10-03T19:12:36.429Z</time>
      </trkpt>
      <trkpt lat="51.980165" lon="6.674476">
        <ele>35.382816</ele>
        <time>2020-10-03T19:12:39.952Z</time>
      </trkpt>
      <trkpt lat="51.979770" lon="6.673630">
        <ele>36.014380</ele>
        <time>2020-10-03T19:12:56.291Z</time>
      </trkpt>
      <trkpt lat="51.979420" lon="6.673090">
        <ele>35.742724</ele>
        <time>2020-10-03T19:13:06.166Z</time>
      </trkpt>
      <trkpt lat="51.979400" lon="6.673040">
        <ele>35.700917</ele>
        <time>2020-10-03T19:13:06.865Z</time>
      </trkpt>
      <trkpt lat="51.979330" lon="6.672860">
        <ele>35.551638</ele>
        <time>2020-10-03T19:13:09.929Z</time>
      </trkpt>
      <trkpt lat="51.979300" lon="6.672640">
        <ele>35.393627</ele>
        <time>2020-10-03T19:13:12.418Z</time>
      </trkpt>
      <trkpt lat="51.979310" lon="6.671100">
        <ele>34.313637</ele>
        <time>2020-10-03T19:13:30.419Z</time>
      </trkpt>
      <trkpt lat="51.979366" lon="6.670417">
        <ele>34.014059</ele>
        <time>2020-10-03T19:13:38.993Z</time>
      </trkpt>
      <trkpt lat="51.979440" lon="6.669520">
        <ele>33.821135</ele>
        <time>2020-10-03T19:13:51.305Z</time>
      </trkpt>
      <trkpt lat="51.979440" lon="6.668950">
        <ele>33.699627</ele>
        <time>2020-10-03T19:13:59.363Z</time>
      </trkpt>
      <trkpt lat="51.979120" lon="6.667940">
        <ele>33.460618</ele>
        <time>2020-10-03T19:14:15.977Z</time>
      </trkpt>
      <trkpt lat="51.978950" lon="6.666660">
        <ele>33.242421</ele>
        <time>2020-10-03T19:14:34.700Z</time>
      </trkpt>
      <trkpt lat="51.978918" lon="6.666464">
        <ele>33.208633</ele>
        <time>2020-10-03T19:14:37.587Z</time>
      </trkpt>
      <trkpt lat="51.978431" lon="6.663434">
        <ele>32.264844</ele>
        <time>2020-10-03T19:15:18.239Z</time>
      </trkpt>
      <trkpt lat="51.978000" lon="6.660750">
        <ele>30.944059</ele>
        <time>2020-10-03T19:15:54.196Z</time>
      </trkpt>
      <trkpt lat="51.977885" lon="6.660886">
        <ele>30.822347</ele>
        <time>2020-10-03T19:15:56.896Z</time>
      </trkpt>
      <trkpt lat="51.978000" lon="6.660750">
        <ele>30.700636</ele>
        <time>2020-10-03T19:16:00.085Z</time>
      </trkpt>
      <trkpt lat="51.977836" lon="6.659682">
        <ele>30.115763</ele>
        <time>2020-10-03T19:16:13.687Z</time>
      </trkpt>
      <trkpt lat="51.977818" lon="6.659645">
        <ele>30.090115</ele>
        <time>2020-10-03T19:16:14.365Z</time>
      </trkpt>
      <trkpt lat="51.977572" lon="6.659271">
        <ele>29.792472</ele>
        <time>2020-10-03T19:16:21.058Z</time>
      </trkpt>
      <trkpt lat="51.977319" lon="6.658859">
        <ele>29.476000</ele>
        <time>2020-10-03T19:16:28.173Z</time>
      </trkpt>
      <trkpt lat="51.976251" lon="6.656995">
        <ele>28.618063</ele>
        <time>2020-10-03T19:17:01.113Z</time>
      </trkpt>
      <trkpt lat="51.975454" lon="6.655823">
        <ele>28.513557</ele>
        <time>2020-10-03T19:17:26.986Z</time>
      </trkpt>
      <trkpt lat="51.974599" lon="6.654863">
        <ele>28.979308</ele>
        <time>2020-10-03T19:17:53.364Z</time>
      </trkpt>
      <trkpt lat="51.973940" lon="6.654149">
        <ele>29.357409</ele>
        <time>2020-10-03T19:18:13.393Z</time>
      </trkpt>
      <trkpt lat="51.973433" lon="6.653561">
        <ele>29.561716</ele>
        <time>2020-10-03T19:18:28.568Z</time>
      </trkpt>
      <trkpt lat="51.972939" lon="6.652984">
        <ele>29.758310</ele>
        <time>2020-10-03T19:18:43.384Z</time>
      </trkpt>
      <trkpt lat="51.972698" lon="6.652642">
        <ele>29.861716</ele>
        <time>2020-10-03T19:18:55.611Z</time>
      </trkpt>
      <trkpt lat="51.972459" lon="6.652470">
        <ele>29.946168</ele>
        <time>2020-10-03T19:19:05.645Z</time>
      </trkpt>
      <trkpt lat="51.972070" lon="6.652350">
        <ele>29.982951</ele>
        <time>2020-10-03T19:19:20.814Z</time>
      </trkpt>
      <trkpt lat="51.971800" lon="6.652270">
        <ele>30.007634</ele>
        <time>2020-10-03T19:19:27.675Z</time>
      </trkpt>
      <trkpt lat="51.971620" lon="6.652310">
        <ele>30.023973</ele>
        <time>2020-10-03T19:19:32.113Z</time>
      </trkpt>
      <trkpt lat="51.970740" lon="6.652860">
        <ele>30.108778</ele>
        <time>2020-10-03T19:19:53.753Z</time>
      </trkpt>
      <trkpt lat="51.970430" lon="6.652960">
        <ele>29.977589</ele>
        <time>2020-10-03T19:20:00.808Z</time>
      </trkpt>
      <trkpt lat="51.970340" lon="6.652988">
        <ele>29.938259</ele>
        <time>2020-10-03T19:20:03.052Z</time>
      </trkpt>
      <trkpt lat="51.970172" lon="6.653340">
        <ele>29.820524</ele>
        <time>2020-10-03T19:20:08.508Z</time>
      </trkpt>
      <trkpt lat="51.970056" lon="6.653533">
        <ele>29.749231</ele>
        <time>2020-10-03T19:20:11.941Z</time>
      </trkpt>
      <trkpt lat="51.969861" lon="6.653706">
        <ele>29.653854</ele>
        <time>2020-10-03T19:20:16.403Z</time>
      </trkpt>
      <trkpt lat="51.968808" lon="6.654417">
        <ele>29.334484</ele>
        <time>2020-10-03T19:20:39.695Z</time>
      </trkpt>
      <trkpt lat="51.968660" lon="6.654618">
        <ele>29.332997</ele>
        <time>2020-10-03T19:20:43.747Z</time>
      </trkpt>
      <trkpt lat="51.968559" lon="6.654842">
        <ele>29.331680</ele>
        <time>2020-10-03T19:20:47.851Z</time>
      </trkpt>
      <trkpt lat="51.968467" lon="6.655274">
        <ele>29.329510</ele>
        <time>2020-10-03T19:20:54.140Z</time>
      </trkpt>
      <trkpt lat="51.968438" lon="6.655884">
        <ele>29.326605</ele>
        <time>2020-10-03T19:21:02.912Z</time>
      </trkpt>
      <trkpt lat="51.968391" lon="6.657011">
        <ele>29.373025</ele>
        <time>2020-10-03T19:21:19.417Z</time>
      </trkpt>
      <trkpt lat="51.968310" lon="6.656999">
        <ele>29.385421</ele>
        <time>2020-10-03T19:21:21.591Z</time>
      </trkpt>
      <trkpt lat="51.968319" lon="6.656775">
        <ele>29.406498</ele>
        <time>2020-10-03T19:21:31.228Z</time>
      </trkpt>
      <trkpt lat="51.968310" lon="6.656999">
        <ele>29.427576</ele>
        <time>2020-10-03T19:21:40.865Z</time>
      </trkpt>
      <trkpt lat="51.967572" lon="6.656890">
        <ele>29.540516</ele>
        <time>2020-10-03T19:21:57.998Z</time>
      </trkpt>
      <trkpt lat="51.967000" lon="6.656990">
        <ele>29.549599</ele>
        <time>2020-10-03T19:22:10.281Z</time>
      </trkpt>
      <trkpt lat="51.966630" lon="6.656960">
        <ele>29.459788</ele>
        <time>2020-10-03T19:22:18.341Z</time>
      </trkpt>
      <trkpt lat="51.964101" lon="6.656511">
        <ele>28.906957</ele>
        <time>2020-10-03T19:23:12.303Z</time>
      </trkpt>
      <trkpt lat="51.963840" lon="6.656380">
        <ele>28.854008</ele>
        <time>2020-10-03T19:23:18.293Z</time>
      </trkpt>
      <trkpt lat="51.963350" lon="6.655910">
        <ele>28.850128</ele>
        <time>2020-10-03T19:23:30.872Z</time>
      </trkpt>
      <trkpt lat="51.963078" lon="6.655584">
        <ele>28.884926</ele>
        <time>2020-10-03T19:23:38.472Z</time>
      </trkpt>
      <trkpt lat="51.962810" lon="6.655370">
        <ele>28.915663</ele>
        <time>2020-10-03T19:23:45.275Z</time>
      </trkpt>
      <trkpt lat="51.962160" lon="6.655110">
        <ele>28.984556</ele>
        <time>2020-10-03T19:24:00.710Z</time>
      </trkpt>
      <trkpt lat="51.962030" lon="6.654950">
        <ele>29.007684</ele>
        <time>2020-10-03T19:24:04.491Z</time>
      </trkpt>
      <trkpt lat="51.961010" lon="6.653130">
        <ele>29.489607</ele>
        <time>2020-10-03T19:24:40.356Z</time>
      </trkpt>
      <trkpt lat="51.960840" lon="6.652890">
        <ele>29.561238</ele>
        <time>2020-10-03T19:24:45.707Z</time>
      </trkpt>
      <trkpt lat="51.960390" lon="6.652530">
        <ele>29.656538</ele>
        <time>2020-10-03T19:24:57.492Z</time>
      </trkpt>
      <trkpt lat="51.960020" lon="6.652350">
        <ele>29.727001</ele>
        <time>2020-10-03T19:25:06.448Z</time>
      </trkpt>
      <trkpt lat="51.959030" lon="6.651930">
        <ele>29.909543</ele>
        <time>2020-10-03T19:25:29.614Z</time>
      </trkpt>
      <trkpt lat="51.956850" lon="6.650980">
        <ele>30.285896</ele>
        <time>2020-10-03T19:26:20.752Z</time>
      </trkpt>
      <trkpt lat="51.956640" lon="6.650930">
        <ele>30.343361</ele>
        <time>2020-10-03T19:26:26.056Z</time>
      </trkpt>
      <trkpt lat="51.954760" lon="6.651560">
        <ele>30.353577</ele>
        <time>2020-10-03T19:27:11.310Z</time>
      </trkpt>
      <trkpt lat="51.954690" lon="6.651574">
        <ele>30.331676</ele>
        <time>2020-10-03T19:27:12.635Z</time>
      </trkpt>
      <trkpt lat="51.954760" lon="6.651560">
        <ele>30.309775</ele>
        <time>2020-10-03T19:27:14.341Z</time>
      </trkpt>
      <trkpt lat="51.954890" lon="6.652720">
        <ele>30.084144</ele>
        <time>2020-10-03T19:27:28.552Z</time>
      </trkpt>
      <trkpt lat="51.954880" lon="6.652810">
        <ele>30.065375</ele>
        <time>2020-10-03T19:27:29.631Z</time>
      </trkpt>
      <trkpt lat="51.954650" lon="6.653560">
        <ele>29.571798</ele>
        <time>2020-10-03T19:27:39.257Z</time>
      </trkpt>
      <trkpt lat="51.954611" lon="6.653685">
        <ele>29.489249</ele>
        <time>2020-10-03T19:27:42.088Z</time>
      </trkpt>
      <trkpt lat="51.954402" lon="6.654388">
        <ele>29.029371</ele>
        <time>2020-10-03T19:27:58.014Z</time>
      </trkpt>
      <trkpt lat="51.954381" lon="6.654727">
        <ele>28.828628</ele>
        <time>2020-10-03T19:28:05.058Z</time>
      </trkpt>
      <trkpt lat="51.954440" lon="6.654924">
        <ele>28.699577</ele>
        <time>2020-10-03T19:28:09.787Z</time>
      </trkpt>
      <trkpt lat="51.954782" lon="6.655521">
        <ele>28.376949</ele>
        <time>2020-10-03T19:28:27.539Z</time>
      </trkpt>
      <trkpt lat="51.955153" lon="6.655837">
        <ele>28.468271</ele>
        <time>2020-10-03T19:28:43.462Z</time>
      </trkpt>
      <trkpt lat="51.956513" lon="6.656644">
        <ele>28.705909</ele>
        <time>2020-10-03T19:29:39.737Z</time>
      </trkpt>
      <trkpt lat="51.956644" lon="6.656776">
        <ele>28.680200</ele>
        <time>2020-10-03T19:29:45.700Z</time>
      </trkpt>
      <trkpt lat="51.956670" lon="6.656779">
        <ele>28.675854</ele>
        <time>2020-10-03T19:29:47.257Z</time>
      </trkpt>
      <trkpt lat="51.956644" lon="6.656776">
        <ele>28.671508</ele>
        <time>2020-10-03T19:29:47.956Z</time>
      </trkpt>
      <trkpt lat="51.956768" lon="6.657026">
        <ele>28.638536</ele>
        <time>2020-10-03T19:29:55.307Z</time>
      </trkpt>
      <trkpt lat="51.956951" lon="6.657749">
        <ele>28.558230</ele>
        <time>2020-10-03T19:30:13.341Z</time>
      </trkpt>
      <trkpt lat="51.957866" lon="6.661531">
        <ele>27.533233</ele>
        <time>2020-10-03T19:31:40.525Z</time>
      </trkpt>
      <trkpt lat="51.957922" lon="6.661570">
        <ele>27.551806</ele>
        <time>2020-10-03T19:31:41.955Z</time>
      </trkpt>
      <trkpt lat="51.959802" lon="6.669318">
        <ele>29.448019</ele>
        <time>2020-10-03T19:33:45.606Z</time>
      </trkpt>
      <trkpt lat="51.959818" lon="6.669598">
        <ele>29.509124</ele>
        <time>2020-10-03T19:33:49.650Z</time>
      </trkpt>
      <trkpt lat="51.960290" lon="6.671530">
        <ele>29.589100</ele>
        <time>2020-10-03T19:34:18.751Z</time>
      </trkpt>
      <trkpt lat="51.960371" lon="6.671655">
        <ele>29.595159</ele>
        <time>2020-10-03T19:34:23.022Z</time>
      </trkpt>
      <trkpt lat="51.961922" lon="6.678147">
        <ele>30.521641</ele>
        <time>2020-10-03T19:37:06.752Z</time>
      </trkpt>
      <trkpt lat="51.961917" lon="6.678243">
        <ele>30.537223</ele>
        <time>2020-10-03T19:37:09.204Z</time>
      </trkpt>
      <trkpt lat="51.962416" lon="6.680302">
        <ele>30.895084</ele>
        <time>2020-10-03T19:37:41.118Z</time>
      </trkpt>
      <trkpt lat="51.962483" lon="6.680398">
        <ele>30.918545</ele>
        <time>2020-10-03T19:37:44.713Z</time>
      </trkpt>
      <trkpt lat="51.963068" lon="6.682846">
        <ele>32.636452</ele>
        <time>2020-10-03T19:38:50.952Z</time>
      </trkpt>
      <trkpt lat="51.963117" lon="6.683049">
        <ele>32.781468</ele>
        <time>2020-10-03T19:38:57.012Z</time>
      </trkpt>
      <trkpt lat="51.963956" lon="6.687784">
        <ele>38.100500</ele>
        <time>2020-10-03T19:41:16.206Z</time>
      </trkpt>
      <trkpt lat="51.964266" lon="6.689514">
        <ele>38.551620</ele>
        <time>2020-10-03T19:41:56.956Z</time>
      </trkpt>
      <trkpt lat="51.964731" lon="6.692212">
        <ele>37.227523</ele>
        <time>2020-10-03T19:42:54.531Z</time>
      </trkpt>
      <trkpt lat="51.965088" lon="6.694189">
        <ele>36.549250</ele>
        <time>2020-10-03T19:43:39.858Z</time>
      </trkpt>
      <trkpt lat="51.965705" lon="6.697671">
        <ele>36.585585</ele>
        <time>2020-10-03T19:45:03.190Z</time>
      </trkpt>
      <trkpt lat="51.965788" lon="6.697758">
        <ele>36.618871</ele>
        <time>2020-10-03T19:45:06.918Z</time>
      </trkpt>
      <trkpt lat="51.965917" lon="6.697835">
        <ele>36.665174</ele>
        <time>2020-10-03T19:45:12.140Z</time>
      </trkpt>
      <trkpt lat="51.965955" lon="6.697857">
        <ele>36.678765</ele>
        <time>2020-10-03T19:45:13.633Z</time>
      </trkpt>
      <trkpt lat="51.966019" lon="6.697877">
        <ele>36.700722</ele>
        <time>2020-10-03T19:45:15.157Z</time>
      </trkpt>
      <trkpt lat="51.965993" lon="6.698063">
        <ele>36.740309</ele>
        <time>2020-10-03T19:45:17.864Z</time>
      </trkpt>
      <trkpt lat="51.965946" lon="6.698387">
        <ele>36.809398</ele>
        <time>2020-10-03T19:45:22.608Z</time>
      </trkpt>
      <trkpt lat="51.965974" lon="6.698668">
        <ele>36.868481</ele>
        <time>2020-10-03T19:45:26.976Z</time>
      </trkpt>
      <trkpt lat="51.965927" lon="6.698779">
        <ele>36.896436</ele>
        <time>2020-10-03T19:45:28.978Z</time>
      </trkpt>
      <trkpt lat="51.965760" lon="6.699087">
        <ele>36.981595</ele>
        <time>2020-10-03T19:45:35.142Z</time>
      </trkpt>
      <trkpt lat="51.965813" lon="6.699136">
        <ele>37.002143</ele>
        <time>2020-10-03T19:45:36.654Z</time>
      </trkpt>
      <trkpt lat="51.965999" lon="6.699168">
        <ele>37.065154</ele>
        <time>2020-10-03T19:45:41.149Z</time>
      </trkpt>
      <trkpt lat="51.966082" lon="6.699203">
        <ele>37.097333</ele>
        <time>2020-10-03T19:45:43.341Z</time>
      </trkpt>
      <trkpt lat="51.966178" lon="6.699308">
        <ele>37.175067</ele>
        <time>2020-10-03T19:45:47.128Z</time>
      </trkpt>
      <trkpt lat="51.966321" lon="6.699512">
        <ele>37.302909</ele>
        <time>2020-10-03T19:45:53.133Z</time>
      </trkpt>
      <trkpt lat="51.966349" lon="6.699673">
        <ele>37.372121</ele>
        <time>2020-10-03T19:45:56.598Z</time>
      </trkpt>
      <trkpt lat="51.966305" lon="6.699984">
        <ele>37.504137</ele>
        <time>2020-10-03T19:46:02.858Z</time>
      </trkpt>
      <trkpt lat="51.966291" lon="6.700092">
        <ele>37.549797</ele>
        <time>2020-10-03T19:46:05.144Z</time>
      </trkpt>
      <trkpt lat="51.966373" lon="6.700137">
        <ele>37.607921</ele>
        <time>2020-10-03T19:46:08.012Z</time>
      </trkpt>
      <trkpt lat="51.966458" lon="6.700274">
        <ele>37.688359</ele>
        <time>2020-10-03T19:46:11.899Z</time>
      </trkpt>
      <trkpt lat="51.966782" lon="6.701369">
        <ele>38.190915</ele>
        <time>2020-10-03T19:46:36.058Z</time>
      </trkpt>
      <trkpt lat="51.966835" lon="6.701533">
        <ele>38.267531</ele>
        <time>2020-10-03T19:46:39.681Z</time>
      </trkpt>
      <trkpt lat="51.967185" lon="6.702574">
        <ele>38.373162</ele>
        <time>2020-10-03T19:47:02.042Z</time>
      </trkpt>
      <trkpt lat="51.967456" lon="6.703481">
        <ele>38.440899</ele>
        <time>2020-10-03T19:47:20.222Z</time>
      </trkpt>
      <trkpt lat="51.967752" lon="6.704408">
        <ele>38.445688</ele>
        <time>2020-10-03T19:47:38.620Z</time>
      </trkpt>
      <trkpt lat="51.968044" lon="6.705413">
        <ele>38.222463</ele>
        <time>2020-10-03T19:47:57.996Z</time>
      </trkpt>
      <trkpt lat="51.968221" lon="6.706372">
        <ele>38.021347</ele>
        <time>2020-10-03T19:48:15.232Z</time>
      </trkpt>
      <trkpt lat="51.968322" lon="6.706665">
        <ele>37.953898</ele>
        <time>2020-10-03T19:48:21.012Z</time>
      </trkpt>
      <trkpt lat="51.968433" lon="6.706951">
        <ele>37.896814</ele>
        <time>2020-10-03T19:48:26.922Z</time>
      </trkpt>
      <trkpt lat="51.968666" lon="6.707503">
        <ele>37.827943</ele>
        <time>2020-10-03T19:48:38.429Z</time>
      </trkpt>
      <trkpt lat="51.968772" lon="6.707797">
        <ele>37.792882</ele>
        <time>2020-10-03T19:48:44.441Z</time>
      </trkpt>
      <trkpt lat="51.968871" lon="6.708168">
        <ele>37.751269</ele>
        <time>2020-10-03T19:48:51.641Z</time>
      </trkpt>
      <trkpt lat="51.969017" lon="6.708861">
        <ele>37.675886</ele>
        <time>2020-10-03T19:49:04.651Z</time>
      </trkpt>
      <trkpt lat="51.969050" lon="6.709274">
        <ele>37.633022</ele>
        <time>2020-10-03T19:49:12.103Z</time>
      </trkpt>
      <trkpt lat="51.969065" lon="6.709677">
        <ele>37.637773</ele>
        <time>2020-10-03T19:49:19.262Z</time>
      </trkpt>
      <trkpt lat="51.969036" lon="6.709818">
        <ele>37.666126</ele>
        <time>2020-10-03T19:49:21.406Z</time>
      </trkpt>
      <trkpt lat="51.969030" lon="6.709866">
        <ele>37.675468</ele>
        <time>2020-10-03T19:49:22.073Z</time>
      </trkpt>
      <trkpt lat="51.969030" lon="6.709967">
        <ele>37.694733</ele>
        <time>2020-10-03T19:49:23.450Z</time>
      </trkpt>
      <trkpt lat="51.968984" lon="6.710022">
        <ele>37.712421</ele>
        <time>2020-10-03T19:49:24.699Z</time>
      </trkpt>
      <trkpt lat="51.968951" lon="6.710096">
        <ele>37.729845</ele>
        <time>2020-10-03T19:49:25.902Z</time>
      </trkpt>
      <trkpt lat="51.968933" lon="6.710179">
        <ele>37.746629</ele>
        <time>2020-10-03T19:49:27.123Z</time>
      </trkpt>
      <trkpt lat="51.968928" lon="6.710234">
        <ele>37.757233</ele>
        <time>2020-10-03T19:49:27.944Z</time>
      </trkpt>
      <trkpt lat="51.968940" lon="6.710338">
        <ele>37.777415</ele>
        <time>2020-10-03T19:49:29.526Z</time>
      </trkpt>
      <trkpt lat="51.968949" lon="6.710374">
        <ele>37.784825</ele>
        <time>2020-10-03T19:49:30.081Z</time>
      </trkpt>
      <trkpt lat="51.968961" lon="6.710408">
        <ele>37.792299</ele>
        <time>2020-10-03T19:49:30.657Z</time>
      </trkpt>
      <trkpt lat="51.968988" lon="6.710459">
        <ele>37.805125</ele>
        <time>2020-10-03T19:49:31.601Z</time>
      </trkpt>
      <trkpt lat="51.969058" lon="6.710529">
        <ele>37.830579</ele>
        <time>2020-10-03T19:49:33.503Z</time>
      </trkpt>
      <trkpt lat="51.969098" lon="6.710543">
        <ele>37.843248</ele>
        <time>2020-10-03T19:49:34.429Z</time>
      </trkpt>
      <trkpt lat="51.969094" lon="6.710603">
        <ele>37.854759</ele>
        <time>2020-10-03T19:49:35.342Z</time>
      </trkpt>
      <trkpt lat="51.969101" lon="6.710971">
        <ele>37.924984</ele>
        <time>2020-10-03T19:49:40.954Z</time>
      </trkpt>
      <trkpt lat="51.969225" lon="6.711497">
        <ele>38.032406</ele>
        <time>2020-10-03T19:49:49.383Z</time>
      </trkpt>
      <trkpt lat="51.969439" lon="6.712271">
        <ele>38.191557</ele>
        <time>2020-10-03T19:50:01.978Z</time>
      </trkpt>
      <trkpt lat="51.969530" lon="6.712603">
        <ele>38.254643</ele>
        <time>2020-10-03T19:50:07.449Z</time>
      </trkpt>
      <trkpt lat="51.969589" lon="6.712820">
        <ele>38.295822</ele>
        <time>2020-10-03T19:50:10.891Z</time>
      </trkpt>
      <trkpt lat="51.969644" lon="6.713027">
        <ele>38.334959</ele>
        <time>2020-10-03T19:50:14.259Z</time>
      </trkpt>
      <trkpt lat="51.969675" lon="6.713138">
        <ele>38.356117</ele>
        <time>2020-10-03T19:50:16.042Z</time>
      </trkpt>
      <trkpt lat="51.969672" lon="6.713209">
        <ele>38.368472</ele>
        <time>2020-10-03T19:50:17.080Z</time>
      </trkpt>
      <trkpt lat="51.969669" lon="6.713260">
        <ele>38.377366</ele>
        <time>2020-10-03T19:50:17.821Z</time>
      </trkpt>
      <trkpt lat="51.969672" lon="6.713291">
        <ele>38.382814</ele>
        <time>2020-10-03T19:50:18.275Z</time>
      </trkpt>
      <trkpt lat="51.969684" lon="6.713407">
        <ele>38.403235</ele>
        <time>2020-10-03T19:50:20.009Z</time>
      </trkpt>
      <trkpt lat="51.969705" lon="6.713697">
        <ele>38.453928</ele>
        <time>2020-10-03T19:50:24.352Z</time>
      </trkpt>
      <trkpt lat="51.969704" lon="6.713807">
        <ele>38.473027</ele>
        <time>2020-10-03T19:50:25.953Z</time>
      </trkpt>
      <trkpt lat="51.969684" lon="6.713890">
        <ele>38.488500</ele>
        <time>2020-10-03T19:50:27.229Z</time>
      </trkpt>
      <trkpt lat="51.969665" lon="6.713943">
        <ele>38.499146</ele>
        <time>2020-10-03T19:50:28.134Z</time>
      </trkpt>
      <trkpt lat="51.969636" lon="6.713991">
        <ele>38.510817</ele>
        <time>2020-10-03T19:50:29.115Z</time>
      </trkpt>
      <trkpt lat="51.969649" lon="6.714020">
        <ele>38.517044</ele>
        <time>2020-10-03T19:50:29.656Z</time>
      </trkpt>
      <trkpt lat="51.969668" lon="6.714064">
        <ele>38.526372</ele>
        <time>2020-10-03T19:50:30.453Z</time>
      </trkpt>
      <trkpt lat="51.969692" lon="6.714116">
        <ele>38.537652</ele>
        <time>2020-10-03T19:50:31.451Z</time>
      </trkpt>
      <trkpt lat="51.969704" lon="6.714144">
        <ele>38.543573</ele>
        <time>2020-10-03T19:50:31.940Z</time>
      </trkpt>
      <trkpt lat="51.969749" lon="6.714244">
        <ele>38.565072</ele>
        <time>2020-10-03T19:50:33.720Z</time>
      </trkpt>
      <trkpt lat="51.969775" lon="6.714243">
        <ele>38.572401</ele>
        <time>2020-10-03T19:50:34.342Z</time>
      </trkpt>
      <trkpt lat="51.969936" lon="6.714238">
        <ele>38.617779</ele>
        <time>2020-10-03T19:50:37.877Z</time>
      </trkpt>
      <trkpt lat="51.969967" lon="6.714210">
        <ele>38.627776</ele>
        <time>2020-10-03T19:50:38.667Z</time>
      </trkpt>
      <trkpt lat="51.969992" lon="6.714172">
        <ele>38.637428</ele>
        <time>2020-10-03T19:50:39.507Z</time>
      </trkpt>
      <trkpt lat="51.970098" lon="6.714179">
        <ele>38.667323</ele>
        <time>2020-10-03T19:50:42.659Z</time>
      </trkpt>
      <trkpt lat="51.970688" lon="6.714264">
        <ele>38.567634</ele>
        <time>2020-10-03T19:50:59.201Z</time>
      </trkpt>
      <trkpt lat="51.971226" lon="6.714379">
        <ele>38.470186</ele>
        <time>2020-10-03T19:51:11.445Z</time>
      </trkpt>
      <trkpt lat="51.971280" lon="6.714630">
        <ele>38.440773</ele>
        <time>2020-10-03T19:51:15.983Z</time>
      </trkpt>
      <trkpt lat="51.971383" lon="6.714977">
        <ele>38.398160</ele>
        <time>2020-10-03T19:51:23.090Z</time>
      </trkpt>
      <trkpt lat="51.971357" lon="6.715308">
        <ele>38.361244</ele>
        <time>2020-10-03T19:51:28.923Z</time>
      </trkpt>
      <trkpt lat="51.971326" lon="6.715686">
        <ele>38.348402</ele>
        <time>2020-10-03T19:51:35.606Z</time>
      </trkpt>
      <trkpt lat="51.971332" lon="6.716105">
        <ele>38.348402</ele>
        <time>2020-10-03T19:51:43.135Z</time>
      </trkpt>
      <trkpt lat="51.971369" lon="6.716346">
        <ele>38.348402</ele>
        <time>2020-10-03T19:51:47.348Z</time>
      </trkpt>
      <trkpt lat="51.971447" lon="6.716495">
        <ele>38.348402</ele>
        <time>2020-10-03T19:51:50.862Z</time>
      </trkpt>
      <trkpt lat="51.971520" lon="6.716540">
        <ele>38.348402</ele>
        <time>2020-10-03T19:51:53.192Z</time>
      </trkpt>
      <trkpt lat="51.971508" lon="6.716629">
        <ele>38.348402</ele>
        <time>2020-10-03T19:51:54.714Z</time>
      </trkpt>
      <trkpt lat="51.971545" lon="6.716803">
        <ele>38.348402</ele>
        <time>2020-10-03T19:51:57.878Z</time>
      </trkpt>
      <trkpt lat="51.971702" lon="6.717036">
        <ele>38.348402</ele>
        <time>2020-10-03T19:52:04.163Z</time>
      </trkpt>
      <trkpt lat="51.971825" lon="6.717203">
        <ele>38.348402</ele>
        <time>2020-10-03T19:52:08.845Z</time>
      </trkpt>
      <trkpt lat="51.971878" lon="6.717219">
        <ele>38.348402</ele>
        <time>2020-10-03T19:52:10.437Z</time>
      </trkpt>
      <trkpt lat="51.972088" lon="6.717386">
        <ele>38.348402</ele>
        <time>2020-10-03T19:52:17.289Z</time>
      </trkpt>
      <trkpt lat="51.972307" lon="6.717575">
        <ele>38.348402</ele>
        <time>2020-10-03T19:52:24.904Z</time>
      </trkpt>
      <trkpt lat="51.972376" lon="6.717635">
        <ele>38.348402</ele>
        <time>2020-10-03T19:52:27.248Z</time>
      </trkpt>
      <trkpt lat="51.972334" lon="6.717934">
        <ele>38.348402</ele>
        <time>2020-10-03T19:52:32.845Z</time>
      </trkpt>
    </trkseg>
  </trk>
</gpx>